Time;durP1;ratioP1;P1;durP2;ratioP2;P2;SDS_P1;SDS_P2;PMS_P1;PMS_P2;Temp;Humidity;BMP_temperature;BMP_pressure;BME280_temperature;BME280_humidity;BME280_pressure;Samples;Min_cycle;Max_cycle;Signal;HPM_P1;HPM_P2
2023/01/03 00:01:42;;;;;;;25.17;15.68;;;3.80;99.90;;;;;;7378674;19;20029;-46
2023/01/03 00:04:08;;;;;;;25.90;14.43;;;3.80;99.90;;;;;;7375868;19;20022;-48
2023/01/03 00:06:38;;;;;;;24.92;15.13;;;3.80;99.90;;;;;;7376790;19;20023;-48
2023/01/03 00:09:08;;;;;;;25.40;15.77;;;3.80;99.90;;;;;;7378191;19;20017;-47
2023/01/03 00:14:25;;;;;;;22.98;14.98;;;3.70;99.90;;;;;;7375459;19;20010;-57
2023/01/03 00:16:56;;;;;;;27.83;16.33;;;3.70;99.90;;;;;;7377965;19;20453;-57
2023/01/03 00:19:24;;;;;;;25.83;16.05;;;3.70;99.90;;;;;;7378193;19;20018;-57
2023/01/03 00:21:51;;;;;;;28.33;15.70;;;3.70;99.90;;;;;;7379016;19;20481;-57
2023/01/03 00:24:18;;;;;;;24.23;15.35;;;3.70;99.90;;;;;;7376460;19;20437;-58
2023/01/03 00:26:44;;;;;;;26.67;15.55;;;3.70;99.90;;;;;;7376668;19;20026;-58
2023/01/03 00:29:12;;;;;;;24.48;14.23;;;3.60;99.90;;;;;;7377077;19;20019;-47
2023/01/03 00:31:39;;;;;;;24.00;15.90;;;3.60;99.90;;;;;;7377794;19;20021;-47
2023/01/03 00:34:07;;;;;;;22.65;15.02;;;3.50;99.90;;;;;;7375736;19;20018;-58
2023/01/03 00:36:35;;;;;;;20.63;14.68;;;3.50;99.90;;;;;;7376907;19;20048;-58
2023/01/03 00:39:01;;;;;;;25.52;14.43;;;3.40;99.90;;;;;;7375957;19;20011;-58
2023/01/03 00:41:29;;;;;;;26.92;15.00;;;3.40;99.90;;;;;;7373736;19;20379;-45
2023/01/03 00:43:56;;;;;;;24.92;15.65;;;3.40;99.90;;;;;;7375710;19;20067;-58
2023/01/03 00:46:22;;;;;;;25.38;15.52;;;3.30;99.90;;;;;;7373858;19;20021;-57
2023/01/03 00:48:49;;;;;;;24.10;15.27;;;3.20;99.90;;;;;;7377162;19;20144;-58
2023/01/03 00:51:18;;;;;;;22.83;15.38;;;3.20;99.90;;;;;;7372826;19;20029;-58
2023/01/03 00:53:46;;;;;;;21.65;14.82;;;3.10;99.90;;;;;;7372648;19;20029;-46
2023/01/03 00:56:15;;;;;;;23.77;14.85;;;3.10;99.90;;;;;;7372492;19;20018;-45
2023/01/03 00:58:42;;;;;;;28.83;17.70;;;3.00;99.90;;;;;;7376694;19;20572;-49
2023/01/03 01:01:13;;;;;;;27.00;17.73;;;3.10;99.90;;;;;;7375945;19;20035;-48
2023/01/03 01:03:43;;;;;;;31.48;19.98;;;3.10;99.90;;;;;;7371873;19;20014;-45
2023/01/03 01:06:18;;;;;;;32.75;20.38;;;3.10;99.90;;;;;;7375205;19;20010;-46
2023/01/03 01:08:46;;;;;;;44.25;22.35;;;3.30;99.90;;;;;;7374518;19;20041;-47
2023/01/03 01:11:14;;;;;;;34.28;21.90;;;3.30;99.90;;;;;;7376153;19;20074;-47
2023/01/03 01:13:42;;;;;;;41.70;23.83;;;3.40;99.90;;;;;;7369748;19;20367;-44
2023/01/03 01:16:15;;;;;;;45.63;26.15;;;3.40;99.90;;;;;;7372106;19;20022;-44
2023/01/03 01:18:44;;;;;;;41.95;24.40;;;3.50;99.90;;;;;;7376235;19;20018;-45
2023/01/03 01:21:16;;;;;;;40.63;24.37;;;3.40;99.90;;;;;;7377560;19;20021;-44
2023/01/03 01:23:44;;;;;;;42.70;24.73;;;3.50;99.90;;;;;;7375197;19;20481;-49
2023/01/03 01:26:15;;;;;;;45.03;26.17;;;3.50;99.90;;;;;;7376309;19;20010;-49
2023/01/03 01:28:42;;;;;;;41.88;25.63;;;3.50;99.90;;;;;;7374521;19;20018;-46
2023/01/03 01:31:12;;;;;;;41.97;24.48;;;3.50;99.90;;;;;;7371485;19;20019;-48
2023/01/03 01:33:38;;;;;;;35.88;21.83;;;3.40;99.90;;;;;;7369998;19;20078;-47
2023/01/03 01:36:07;;;;;;;41.25;23.45;;;3.40;99.90;;;;;;7374701;19;20489;-48
2023/01/03 01:38:34;;;;;;;36.33;22.75;;;3.40;99.90;;;;;;7373995;19;20011;-48
2023/01/03 01:41:00;;;;;;;33.72;21.40;;;3.40;99.90;;;;;;7374337;19;20045;-48
2023/01/03 01:46:28;;;;;;;35.67;22.05;;;3.40;99.90;;;;;;7371895;19;20502;-45
2023/01/03 01:49:02;;;;;;;37.75;22.30;;;3.40;99.90;;;;;;7373810;19;20043;-57
2023/01/03 01:51:32;;;;;;;33.15;20.70;;;3.30;99.90;;;;;;7371419;19;20415;-57
2023/01/03 01:54:03;;;;;;;35.65;20.67;;;3.30;99.90;;;;;;7372989;19;20029;-58
2023/01/03 01:57:01;;;;;;;30.05;21.20;;;3.30;99.90;;;;;;7371916;19;20032;-58
2023/01/03 01:59:27;;;;;;;31.40;20.00;;;3.20;99.90;;;;;;7370226;19;20017;-58
2023/01/03 02:01:55;;;;;;;34.35;20.80;;;3.10;99.90;;;;;;7375218;19;20022;-48
2023/01/03 02:04:31;;;;;;;32.30;19.05;;;3.00;99.90;;;;;;7371223;19;20014;-48
2023/01/03 02:06:57;;;;;;;;;;;3.00;99.90;;;;;;7374793;19;20515;-49
2023/01/03 02:09:24;;;;;;;34.78;21.23;;;3.00;99.90;;;;;;7370929;19;19926;-58
2023/01/03 02:14:56;;;;;;;34.65;22.73;;;3.00;99.90;;;;;;7373027;19;20021;-57
2023/01/03 02:17:39;;;;;;;37.05;22.25;;;3.10;99.90;;;;;;7369624;19;20344;-48
2023/01/03 02:20:17;;;;;;;42.78;23.60;;;3.20;99.90;;;;;;7371503;19;20014;-47
2023/01/03 02:23:01;;;;;;;40.05;21.95;;;3.10;99.90;;;;;;7371461;19;20018;-45
2023/01/03 02:25:52;;;;;;;42.15;23.90;;;3.20;99.90;;;;;;7372526;19;20467;-48
2023/01/03 02:28:59;;;;;;;43.67;23.17;;;3.20;99.90;;;;;;7374972;19;20395;-49
2023/01/03 02:31:51;;;;;;;42.05;22.02;;;3.20;99.90;;;;;;7365414;19;20052;-46
2023/01/03 02:34:47;;;;;;;45.15;22.63;;;3.10;99.90;;;;;;7371424;19;20346;-49
2023/01/03 02:37:17;;;;;;;35.42;21.80;;;3.10;99.90;;;;;;7373187;19;20050;-48
2023/01/03 02:39:51;;;;;;;46.63;24.52;;;3.10;99.90;;;;;;7371020;19;20010;-57
2023/01/03 02:43:01;;;;;;;40.78;23.80;;;3.10;99.90;;;;;;7372811;19;20031;-57
2023/01/03 02:45:54;;;;;;;44.08;24.00;;;3.10;99.90;;;;;;7373713;19;20014;-57
2023/01/03 02:48:38;;;;;;;42.83;25.35;;;3.20;99.90;;;;;;7377970;19;20759;-45
2023/01/03 02:51:12;;;;;;;43.97;25.02;;;3.20;99.90;;;;;;7377996;19;20010;-47
2023/01/03 02:53:45;;;;;;;44.20;24.35;;;3.20;99.90;;;;;;7376926;19;20050;-57
2023/01/03 02:56:19;;;;;;;43.22;25.20;;;3.20;99.90;;;;;;7376241;19;20039;-57
2023/01/03 02:58:51;;;;;;;51.42;26.83;;;3.10;99.90;;;;;;7377353;19;20035;-57
2023/01/03 03:01:19;;;;;;;47.47;25.75;;;3.10;99.90;;;;;;7378860;19;20045;-58
2023/01/03 03:03:46;;;;;;;51.95;27.42;;;3.10;99.90;;;;;;7376799;19;20018;-49
2023/01/03 03:06:44;;;;;;;55.35;27.95;;;3.10;99.90;;;;;;7377184;19;20038;-47
2023/01/03 03:09:10;;;;;;;51.45;25.98;;;3.10;99.90;;;;;;7380351;19;20559;-48
2023/01/03 03:14:39;;;;;;;49.03;26.02;;;3.20;99.90;;;;;;7376565;19;20026;-57
2023/01/03 03:17:11;;;;;;;46.88;26.77;;;3.00;99.90;;;;;;7378927;19;20521;-58
2023/01/03 03:25:46;;;;;;;48.22;26.08;;;2.90;99.90;;;;;;7374815;19;20456;-58
2023/01/03 03:28:33;;;;;;;52.27;25.77;;;2.90;99.90;;;;;;7377968;19;20010;-58
2023/01/03 03:31:13;;;;;;;46.17;24.52;;;2.90;99.90;;;;;;7377149;19;20286;-57
2023/01/03 03:33:50;;;;;;;43.67;23.83;;;2.90;99.90;;;;;;7373288;19;20018;-57
2023/01/03 03:36:48;;;;;;;46.17;23.20;;;2.80;99.90;;;;;;7378343;19;20018;-57
2023/01/03 03:45:23;;;;;;;54.35;25.02;;;2.50;99.90;;;;;;7366286;19;20021;-57
2023/01/03 03:47:50;;;;;;;53.95;25.58;;;2.50;99.90;;;;;;7368313;19;20015;-57
2023/01/03 03:50:22;;;;;;;45.55;23.90;;;2.40;99.90;;;;;;7360658;19;20107;-57
2023/01/03 03:52:53;;;;;;;47.85;24.63;;;2.40;99.90;;;;;;7367282;19;20024;-57
2023/01/03 03:55:26;;;;;;;43.95;24.90;;;2.40;99.90;;;;;;7368203;19;20766;-57
2023/01/03 03:58:05;;;;;;;53.25;25.88;;;2.40;99.90;;;;;;7366603;19;20475;-57
2023/01/03 04:00:37;;;;;;;59.50;27.60;;;2.30;99.90;;;;;;7367001;19;20022;-57
2023/01/03 04:03:17;;;;;;;56.00;27.08;;;2.40;99.90;;;;;;7367786;19;20031;-57
2023/01/03 04:05:49;;;;;;;54.47;27.13;;;2.40;99.90;;;;;;7364878;19;20014;-57
2023/01/03 04:08:15;;;;;;;57.00;27.17;;;2.40;99.90;;;;;;7367269;19;20026;-57
2023/01/03 04:10:42;;;;;;;55.95;27.27;;;2.50;99.90;;;;;;7368042;19;20820;-57
2023/01/03 04:13:08;;;;;;;66.07;29.27;;;2.50;99.90;;;;;;7368451;19;20031;-57
2023/01/03 04:15:36;;;;;;;58.08;27.25;;;2.50;99.90;;;;;;7366655;19;20018;-57
2023/01/03 04:18:02;;;;;;;58.92;27.35;;;2.40;99.90;;;;;;7367046;19;20063;-57
2023/01/03 04:20:29;;;;;;;57.80;27.05;;;2.40;99.90;;;;;;7367472;19;20862;-57
2023/01/03 04:22:56;;;;;;;61.83;29.13;;;2.40;99.90;;;;;;7367914;19;20010;-57
2023/01/03 04:25:22;;;;;;;57.28;29.48;;;2.40;99.90;;;;;;7364607;19;20025;-57
2023/01/03 04:27:49;;;;;;;52.40;28.48;;;2.40;99.90;;;;;;7365578;19;20424;-57
2023/01/03 04:30:15;;;;;;;52.53;26.98;;;2.30;99.90;;;;;;7363780;19;20057;-58
2023/01/03 04:32:42;;;;;;;59.92;30.63;;;2.30;99.90;;;;;;7362968;19;20364;-57
2023/01/03 04:35:09;;;;;;;62.00;29.70;;;2.20;99.90;;;;;;7366249;19;20014;-57
2023/01/03 04:37:36;;;;;;;58.03;29.85;;;2.20;99.90;;;;;;7361545;19;20121;-57
2023/01/03 04:40:02;;;;;;;69.72;31.60;;;2.20;99.90;;;;;;7364683;19;20058;-58
2023/01/03 04:45:15;;;;;;;64.25;31.85;;;2.20;99.90;;;;;;7364975;19;20082;-57
2023/01/03 04:47:42;;;;;;;72.75;34.90;;;2.30;99.90;;;;;;7365532;19;20027;-57
2023/01/03 04:50:09;;;;;;;71.65;35.70;;;2.40;99.90;;;;;;7364701;19;20615;-57
2023/01/03 04:52:36;;;;;;;73.65;34.35;;;2.30;99.90;;;;;;7362691;19;20035;-57
2023/01/03 04:55:02;;;;;;;74.93;36.35;;;2.40;99.90;;;;;;7366375;19;20578;-57
2023/01/03 04:57:29;;;;;;;79.18;36.20;;;2.40;99.90;;;;;;7359335;19;20629;-57
2023/01/03 04:59:55;;;;;;;70.65;34.97;;;2.40;99.90;;;;;;7364222;19;20368;-58
2023/01/03 05:02:21;;;;;;;72.13;35.78;;;2.50;99.90;;;;;;7366501;19;20023;-45
2023/01/03 05:04:48;;;;;;;73.72;37.05;;;2.60;99.90;;;;;;7365111;19;20018;-57
2023/01/03 05:07:15;;;;;;;80.13;36.45;;;2.60;99.90;;;;;;7367416;19;20022;-45
2023/01/03 05:09:42;;;;;;;79.25;38.00;;;2.60;99.90;;;;;;7360595;19;20482;-45
2023/01/03 05:12:11;;;;;;;81.80;37.33;;;2.60;99.90;;;;;;7365884;19;20936;-43
2023/01/03 05:14:40;;;;;;;77.88;37.13;;;2.60;99.90;;;;;;7360653;19;20389;-46
2023/01/03 05:17:07;;;;;;;72.60;36.05;;;2.60;99.90;;;;;;7361708;19;20098;-47
2023/01/03 05:25:48;;;;;;;73.63;38.42;;;2.60;99.90;;;;;;7361741;19;20033;-46
2023/01/03 05:27:57;;;;;;;74.18;38.85;;;2.50;99.90;;;;;;7353353;19;20029;-45
2023/01/03 05:30:24;;;;;;;73.80;37.58;;;2.40;99.90;;;;;;7362643;19;20040;-44
2023/01/03 05:32:50;;;;;;;75.43;38.83;;;2.40;99.90;;;;;;7360419;19;20041;-46
2023/01/03 05:35:16;;;;;;;73.47;38.78;;;2.40;99.90;;;;;;7362593;19;20018;-47
2023/01/03 05:37:43;;;;;;;69.05;38.95;;;2.30;99.90;;;;;;7361050;19;20877;-45
2023/01/03 05:40:09;;;;;;;65.50;38.10;;;2.20;99.90;;;;;;7358398;19;21261;-44
2023/01/03 05:42:35;;;;;;;75.57;40.33;;;2.20;99.90;;;;;;7357970;19;20035;-47
2023/01/03 05:45:02;;;;;;;71.80;40.92;;;2.20;99.90;;;;;;7356180;19;20130;-46
2023/01/03 05:47:29;;;;;;;66.43;37.65;;;2.30;99.90;;;;;;7359070;19;20018;-47
2023/01/03 05:49:55;;;;;;;81.18;40.58;;;2.20;99.90;;;;;;7353289;19;20121;-46
2023/01/03 05:52:21;;;;;;;74.30;38.25;;;2.20;99.90;;;;;;7357571;19;20101;-45
2023/01/03 05:54:48;;;;;;;73.68;40.13;;;2.20;99.90;;;;;;7358646;19;20031;-46
2023/01/03 05:57:14;;;;;;;71.18;37.97;;;2.10;99.90;;;;;;7354425;19;20927;-50
2023/01/03 05:59:40;;;;;;;71.20;38.28;;;2.10;99.90;;;;;;7357691;19;20032;-46
2023/01/03 06:02:07;;;;;;;60.97;37.05;;;2.00;99.90;;;;;;7355490;19;20022;-48
2023/01/03 06:04:33;;;;;;;68.53;39.05;;;1.90;99.90;;;;;;7358194;19;20047;-48
2023/01/03 06:06:59;;;;;;;65.07;38.58;;;1.90;99.90;;;;;;7359707;19;20394;-46
2023/01/03 06:09:27;;;;;;;66.15;38.53;;;1.90;99.90;;;;;;7355284;19;20018;-48
2023/01/03 06:11:53;;;;;;;66.25;36.65;;;1.90;99.90;;;;;;7351900;19;20425;-47
2023/01/03 06:14:20;;;;;;;64.97;39.42;;;1.80;99.90;;;;;;7349060;19;20023;-48
2023/01/03 06:19:32;;;;;;;67.20;39.25;;;1.90;99.90;;;;;;7352060;19;20014;-46
2023/01/03 06:21:58;;;;;;;61.47;37.40;;;1.80;99.90;;;;;;7365388;19;20066;-48
2023/01/03 06:24:25;;;;;;;68.78;40.22;;;1.80;99.90;;;;;;7363210;19;20057;-49
2023/01/03 06:26:51;;;;;;;80.97;43.60;;;1.80;99.90;;;;;;7365257;19;20349;-58
2023/01/03 06:29:18;;;;;;;76.97;42.63;;;1.80;99.90;;;;;;7365741;19;20518;-58
2023/01/03 06:31:44;;;;;;;73.30;41.22;;;1.90;99.90;;;;;;7364504;19;20031;-49
2023/01/03 06:34:11;;;;;;;80.93;44.35;;;1.90;99.90;;;;;;7358357;19;20355;-48
2023/01/03 06:36:37;;;;;;;80.47;45.03;;;1.90;99.90;;;;;;7362173;19;20350;-48
2023/01/03 06:39:03;;;;;;;87.03;45.75;;;1.90;99.90;;;;;;7366052;19;20039;-48
2023/01/03 06:41:29;;;;;;;90.50;48.38;;;1.90;99.90;;;;;;7364727;19;20018;-48
2023/01/03 06:43:56;;;;;;;93.05;47.72;;;1.90;99.90;;;;;;7365421;19;20113;-48
2023/01/03 06:54:54;;;;;;;88.70;47.80;;;1.90;99.90;;;;;;7364689;19;20049;-50
2023/01/03 06:57:20;;;;;;;88.53;46.95;;;1.90;99.90;;;;;;7360852;19;20011;-48
2023/01/03 06:59:47;;;;;;;91.35;49.80;;;1.90;99.90;;;;;;7363222;19;20034;-46
2023/01/03 07:02:15;;;;;;;99.18;48.13;;;1.90;99.90;;;;;;7364345;19;20520;-58
2023/01/03 07:04:41;;;;;;;89.32;47.58;;;1.90;99.90;;;;;;7362523;19;20282;-45
2023/01/03 07:07:07;;;;;;;91.88;47.60;;;1.90;99.90;;;;;;7362547;19;20074;-58
2023/01/03 07:09:34;;;;;;;96.38;48.10;;;1.90;99.90;;;;;;7363046;19;20014;-46
2023/01/03 07:14:50;;;;;;;120.88;52.60;;;1.90;99.90;;;;;;7361010;19;20038;-58
2023/01/03 07:17:16;;;;;;;199.27;59.58;;;1.90;99.90;;;;;;7363149;19;20014;-50
2023/01/03 07:19:47;;;;;;;380.15;70.30;;;1.90;99.90;;;;;;7363208;19;20014;-48
2023/01/03 07:22:13;;;;;;;363.77;73.15;;;1.90;99.90;;;;;;7364273;19;20132;-48
2023/01/03 07:24:39;;;;;;;456.33;73.40;;;1.90;99.90;;;;;;7367645;19;20011;-50
2023/01/03 07:27:05;;;;;;;409.27;73.55;;;1.90;99.90;;;;;;7362574;19;20436;-57
2023/01/03 07:29:32;;;;;;;444.83;71.40;;;1.90;99.90;;;;;;7361938;19;20637;-46
2023/01/03 07:31:58;;;;;;;376.23;65.32;;;1.90;99.90;;;;;;7361102;19;20469;-44
2023/01/03 07:34:25;;;;;;;321.70;65.57;;;1.80;99.90;;;;;;7360585;19;20023;-57
2023/01/03 07:36:52;;;;;;;484.23;83.93;;;1.90;99.90;;;;;;7364878;19;20509;-49
2023/01/03 07:39:18;;;;;;;237.88;53.65;;;1.90;99.90;;;;;;7363696;19;20583;-52
2023/01/03 07:44:30;;;;;;;273.77;59.45;;;1.90;99.90;;;;;;7363463;19;20010;-53
2023/01/03 07:46:56;;;;;;;273.38;57.92;;;1.90;99.90;;;;;;7364097;19;20022;-50
2023/01/03 07:49:25;;;;;;;384.98;68.20;;;1.90;99.90;;;;;;7360630;19;20799;-51
2023/01/03 07:51:52;;;;;;;326.08;59.45;;;1.90;99.90;;;;;;7359438;19;20046;-52
2023/01/03 07:54:18;;;;;;;325.52;63.00;;;1.80;99.90;;;;;;7365504;19;20025;-53
2023/01/03 07:56:45;;;;;;;229.88;51.17;;;2.00;99.90;;;;;;7361625;19;20023;-53
2023/01/03 07:59:12;;;;;;;273.83;55.35;;;2.00;99.90;;;;;;7365065;19;20477;-51
2023/01/03 08:01:38;;;;;;;338.00;61.88;;;2.00;99.90;;;;;;7360738;19;20381;-53
2023/01/03 08:04:04;;;;;;;264.17;60.58;;;2.00;99.90;;;;;;7359770;19;20731;-52
2023/01/03 08:06:32;;;;;;;299.38;61.33;;;2.00;99.90;;;;;;7365657;19;20033;-51
2023/01/03 08:14:29;;;;;;;323.75;57.67;;;2.20;99.90;;;;;;7359853;19;20018;-53
2023/01/03 08:16:57;;;;;;;403.45;71.22;;;2.30;99.90;;;;;;7361022;19;20026;-54
2023/01/03 08:19:23;;;;;;;326.85;62.45;;;2.40;99.90;;;;;;7363751;19;20026;-52
2023/01/03 08:21:51;;;;;;;362.23;68.35;;;2.50;99.90;;;;;;7362414;19;20037;-53
2023/01/03 08:24:18;;;;;;;412.35;71.50;;;2.60;99.90;;;;;;7363636;19;20043;-53
2023/01/03 08:26:44;;;;;;;475.77;72.05;;;2.70;99.90;;;;;;7362594;19;20303;-52
2023/01/03 08:29:12;;;;;;;418.42;69.88;;;2.70;99.90;;;;;;7361773;19;20014;-50
2023/01/03 08:31:43;;;;;;;471.52;72.68;;;2.80;99.90;;;;;;7364218;19;20055;-53
2023/01/03 08:34:12;;;;;;;309.25;58.33;;;2.90;99.90;;;;;;7361450;19;20029;-55
2023/01/03 08:36:45;;;;;;;313.13;58.13;;;3.00;99.90;;;;;;7366708;19;20018;-51
2023/01/03 08:39:17;;;;;;;450.15;70.97;;;3.00;99.90;;;;;;7365918;19;20370;-53
2023/01/03 08:41:52;;;;;;;501.92;80.22;;;3.10;99.90;;;;;;7367227;19;20024;-52
2023/01/03 08:44:22;;;;;;;479.08;76.00;;;3.20;99.90;;;;;;7362960;19;20021;-53
2023/01/03 08:46:52;;;;;;;489.75;82.05;;;3.20;99.90;;;;;;7362936;19;20017;-53
2023/01/03 08:49:20;;;;;;;537.08;81.25;;;3.30;99.90;;;;;;7358591;19;20529;-55
2023/01/03 08:51:46;;;;;;;587.10;87.88;;;3.40;99.90;;;;;;7357140;19;20014;-52
2023/01/03 08:54:13;;;;;;;588.70;84.40;;;3.50;99.90;;;;;;7359043;19;20450;-51
2023/01/03 08:56:44;;;;;;;558.08;91.97;;;3.60;99.90;;;;;;7360470;19;20869;-51
2023/01/03 08:59:11;;;;;;;549.47;86.90;;;3.70;99.90;;;;;;7359582;19;20018;-53
2023/01/03 09:01:37;;;;;;;413.08;80.25;;;3.80;99.90;;;;;;7358977;19;20509;-53
2023/01/03 09:04:04;;;;;;;402.77;78.72;;;3.80;99.90;;;;;;7360375;19;20022;-54
2023/01/03 09:06:31;;;;;;;382.60;76.55;;;3.90;99.90;;;;;;7361090;19;20014;-53
2023/01/03 09:09:05;;;;;;;325.75;73.00;;;4.00;99.90;;;;;;7359015;19;20019;-52
2023/01/03 09:11:32;;;;;;;299.30;68.45;;;4.10;99.90;;;;;;7363530;19;20451;-53
2023/01/03 09:13:58;;;;;;;285.52;68.38;;;4.10;99.90;;;;;;7354297;19;20015;-54
2023/01/03 09:16:24;;;;;;;243.57;66.65;;;4.20;99.90;;;;;;7361264;19;20018;-53
2023/01/03 09:18:51;;;;;;;229.40;61.83;;;4.30;99.90;;;;;;7365369;19;20025;-55
2023/01/03 09:21:22;;;;;;;235.00;62.00;;;4.40;99.90;;;;;;7361787;19;20373;-54
2023/01/03 09:23:48;;;;;;;208.05;63.30;;;4.50;99.90;;;;;;7360278;19;20483;-53
2023/01/03 09:26:15;;;;;;;248.90;65.40;;;4.50;99.90;;;;;;7360174;19;20028;-52
2023/01/03 09:28:41;;;;;;;213.98;63.55;;;4.60;99.90;;;;;;7358744;19;20446;-54
2023/01/03 09:31:24;;;;;;;205.63;60.88;;;4.70;99.90;;;;;;7359080;19;20019;-52
2023/01/03 09:33:50;;;;;;;200.32;59.83;;;4.70;99.90;;;;;;7358882;19;20022;-52
2023/01/03 09:36:16;;;;;;;204.13;62.72;;;4.80;99.90;;;;;;7360685;19;20014;-54
2023/01/03 09:38:42;;;;;;;188.70;59.53;;;4.80;99.90;;;;;;7357166;19;20671;-54
2023/01/03 09:41:17;;;;;;;181.02;57.78;;;4.80;99.90;;;;;;7361872;19;20732;-53
2023/01/03 09:43:47;;;;;;;164.73;59.08;;;4.80;99.90;;;;;;7354087;19;20022;-48
2023/01/03 09:46:21;;;;;;;181.57;61.05;;;4.80;99.90;;;;;;7358338;19;20473;-51
2023/01/03 09:48:48;;;;;;;158.20;59.90;;;4.90;99.90;;;;;;7358393;19;20422;-49
2023/01/03 10:03:45;;;;;;;159.10;61.17;;;4.90;99.90;;;;;;7360012;19;20048;-48
2023/01/03 10:06:32;;;;;;;170.07;61.85;;;4.90;99.90;;;;;;7358412;19;20471;-49
2023/01/03 10:09:16;;;;;;;171.57;61.47;;;5.00;99.90;;;;;;7353919;19;20512;-51
2023/01/03 10:12:05;;;;;;;179.23;64.22;;;5.00;99.90;;;;;;7359825;19;20509;-46
2023/01/03 10:14:54;;;;;;;173.00;62.35;;;5.10;99.90;;;;;;7355563;19;20046;-52
2023/01/03 10:17:27;;;;;;;167.95;56.38;;;5.10;99.90;;;;;;7354966;19;20599;-51
2023/01/03 10:20:02;;;;;;;153.77;58.80;;;5.10;99.90;;;;;;7360109;19;20468;-52
2023/01/03 10:22:30;;;;;;;170.80;57.33;;;5.20;99.90;;;;;;7353874;19;20025;-52
2023/01/03 10:25:20;;;;;;;163.10;59.33;;;5.30;99.90;;;;;;7358296;19;20703;-51
2023/01/03 10:27:55;;;;;;;152.30;56.05;;;5.30;99.90;;;;;;7355348;19;20014;-49
2023/01/03 10:30:25;;;;;;;148.43;58.42;;;5.40;99.90;;;;;;7359368;19;20027;-51
2023/01/03 10:32:51;;;;;;;163.18;61.58;;;5.50;99.90;;;;;;7354572;19;20018;-49
2023/01/03 10:35:22;;;;;;;152.43;59.28;;;5.50;99.90;;;;;;7356067;19;20045;-55
2023/01/03 10:37:53;;;;;;;151.13;54.08;;;5.50;99.90;;;;;;7351106;19;20026;-53
2023/01/03 10:40:29;;;;;;;145.97;55.93;;;5.50;99.90;;;;;;7357558;19;20022;-46
2023/01/03 10:42:55;;;;;;;136.73;56.03;;;5.60;99.90;;;;;;7360745;19;20018;-46
2023/01/03 10:45:26;;;;;;;134.93;57.85;;;5.70;99.90;;;;;;7359669;19;20505;-51
2023/01/03 10:47:58;;;;;;;131.55;55.83;;;6.00;99.90;;;;;;7357512;19;20035;-50
2023/01/03 10:50:25;;;;;;;117.97;53.47;;;6.10;99.90;;;;;;7361828;19;20022;-52
2023/01/03 10:53:14;;;;;;;127.63;55.40;;;6.20;99.90;;;;;;7360881;19;20530;-51
2023/01/03 10:55:48;;;;;;;101.38;49.25;;;6.20;99.90;;;;;;7349001;19;20733;-50
2023/01/03 10:58:20;;;;;;;85.50;44.03;;;6.10;99.90;;;;;;7361122;19;20030;-48
2023/01/03 11:00:53;;;;;;;82.65;45.13;;;6.10;99.90;;;;;;7359851;19;20361;-49
2023/01/03 11:03:24;;;;;;;92.10;46.75;;;6.00;99.90;;;;;;7356525;19;20485;-54
2023/01/03 11:06:00;;;;;;;76.75;41.80;;;6.10;99.90;;;;;;7357408;19;20022;-54
2023/01/03 11:08:54;;;;;;;68.10;43.65;;;6.10;99.90;;;;;;7360813;19;20506;-52
2023/01/03 11:11:29;;;;;;;70.82;40.63;;;6.10;99.90;;;;;;7364027;19;20477;-52
2023/01/03 11:14:10;;;;;;;77.60;42.17;;;6.10;99.90;;;;;;7364287;19;20011;-50
2023/01/03 11:16:37;;;;;;;74.75;42.75;;;6.20;99.90;;;;;;7359847;19;20018;-50
2023/01/03 11:19:05;;;;;;;72.68;42.40;;;6.30;99.90;;;;;;7366213;19;20029;-52
2023/01/03 11:21:38;;;;;;;61.20;36.85;;;6.30;99.90;;;;;;7364172;19;20033;-53
2023/01/03 11:24:21;;;;;;;68.95;40.33;;;6.30;99.90;;;;;;7364828;19;20507;-53
2023/01/03 11:27:04;;;;;;;67.22;40.58;;;6.30;99.90;;;;;;7363698;19;20539;-52
2023/01/03 11:29:51;;;;;;;65.30;38.53;;;6.30;99.90;;;;;;7362701;19;20015;-50
2023/01/03 11:32:45;;;;;;;73.03;40.33;;;6.40;99.90;;;;;;7365912;19;20021;-51
2023/01/03 11:35:36;;;;;;;65.32;40.58;;;6.40;99.90;;;;;;7362407;19;20010;-53
2023/01/03 11:38:23;;;;;;;64.75;40.45;;;6.40;99.90;;;;;;7365372;19;20493;-52
2023/01/03 11:41:10;;;;;;;60.63;38.10;;;6.40;99.90;;;;;;7362282;19;20097;-51
2023/01/03 11:43:46;;;;;;;55.80;35.33;;;6.40;99.90;;;;;;7366939;19;20584;-49
2023/01/03 11:46:31;;;;;;;60.40;35.92;;;6.40;99.90;;;;;;7367348;19;20117;-50
2023/01/03 11:49:07;;;;;;;49.72;34.83;;;6.40;99.90;;;;;;7365855;19;20022;-52
2023/01/03 11:52:00;;;;;;;61.17;36.72;;;6.40;99.90;;;;;;7362937;19;20737;-54
2023/01/03 11:54:55;;;;;;;54.50;35.13;;;6.40;99.90;;;;;;7364960;19;20620;-53
2023/01/03 11:57:48;;;;;;;60.35;35.83;;;6.50;99.90;;;;;;7362247;19;20019;-52
2023/01/03 12:00:40;;;;;;;57.53;36.45;;;6.50;99.90;;;;;;7365650;19;20033;-53
2023/01/03 12:03:30;;;;;;;54.33;33.50;;;6.50;99.90;;;;;;7364769;19;20014;-51
2023/01/03 12:06:28;;;;;;;55.40;34.65;;;6.50;99.90;;;;;;7362323;19;20611;-53
2023/01/03 12:09:17;;;;;;;56.38;32.75;;;6.50;99.90;;;;;;7361125;19;20026;-50
2023/01/03 12:11:53;;;;;;;48.15;33.60;;;6.50;99.90;;;;;;7364174;19;20014;-54
2023/01/03 12:14:35;;;;;;;43.60;31.60;;;6.60;99.90;;;;;;7362284;19;20509;-52
2023/01/03 12:17:18;;;;;;;49.50;32.45;;;6.60;99.90;;;;;;7364977;19;20019;-52
2023/01/03 12:19:54;;;;;;;43.47;30.50;;;6.70;99.90;;;;;;7360583;19;20321;-54
2023/01/03 12:22:27;;;;;;;46.67;31.35;;;6.70;99.90;;;;;;7362183;19;20035;-54
2023/01/03 12:24:58;;;;;;;44.60;29.08;;;6.70;99.90;;;;;;7362067;19;20015;-55
2023/01/03 12:27:42;;;;;;;46.08;30.02;;;6.80;99.90;;;;;;7362571;19;20329;-53
2023/01/03 12:30:41;;;;;;;45.63;29.02;;;6.80;99.90;;;;;;7361981;19;20018;-53
2023/01/03 12:33:31;;;;;;;47.75;28.05;;;6.80;99.90;;;;;;7362614;19;20393;-50
2023/01/03 12:36:26;;;;;;;45.90;30.30;;;6.80;99.90;;;;;;7360804;19;20018;-52
2023/01/03 12:39:13;;;;;;;50.80;29.75;;;6.80;99.90;;;;;;7360852;19;20111;-53
2023/01/03 12:42:08;;;;;;;44.60;29.75;;;6.80;99.90;;;;;;7361463;19;20145;-50
2023/01/03 12:44:44;;;;;;;54.88;32.60;;;6.80;99.90;;;;;;7358283;19;20027;-49
2023/01/03 12:47:25;;;;;;;51.83;30.98;;;6.80;99.90;;;;;;7363832;19;20025;-50
2023/01/03 12:50:05;;;;;;;50.27;31.30;;;6.90;99.90;;;;;;7363256;19;20014;-53
2023/01/03 12:52:34;;;;;;;54.65;31.60;;;6.90;99.90;;;;;;7360476;19;20048;-53
2023/01/03 12:55:22;;;;;;;58.83;33.40;;;6.80;99.90;;;;;;7362349;19;20023;-52
2023/01/03 12:58:40;;;;;;;65.03;32.70;;;6.80;99.90;;;;;;7359095;19;20018;-52
2023/01/03 13:01:14;;;;;;;62.72;34.08;;;6.80;99.90;;;;;;7362776;19;20026;-53
2023/01/03 13:03:49;;;;;;;64.10;34.13;;;6.80;99.90;;;;;;7357394;19;20027;-55
2023/01/03 13:06:22;;;;;;;60.75;33.50;;;6.90;99.90;;;;;;7361386;19;20029;-54
2023/01/03 13:09:03;;;;;;;71.03;37.05;;;6.80;99.90;;;;;;7365974;19;20456;-53
2023/01/03 13:11:48;;;;;;;52.95;31.63;;;6.90;99.90;;;;;;7364566;19;20449;-52
2023/01/03 13:14:22;;;;;;;55.53;31.73;;;6.90;99.90;;;;;;7362172;19;20762;-52
2023/01/03 13:16:51;;;;;;;54.50;31.85;;;6.90;99.90;;;;;;7359274;19;20033;-52
2023/01/03 13:19:20;;;;;;;55.08;31.98;;;6.90;99.90;;;;;;7363021;19;20584;-55
2023/01/03 13:21:52;;;;;;;54.40;32.17;;;7.00;99.90;;;;;;7362379;19;20036;-56
2023/01/03 13:24:39;;;;;;;50.22;31.63;;;7.00;99.90;;;;;;7356414;19;20357;-54
2023/01/03 13:27:31;;;;;;;55.38;31.20;;;7.00;99.90;;;;;;7360339;19;20010;-52
2023/01/03 13:29:58;;;;;;;49.97;30.63;;;7.00;99.90;;;;;;7358896;19;20381;-55
2023/01/03 13:32:26;;;;;;;56.47;32.47;;;7.00;99.90;;;;;;7359598;19;20987;-53
2023/01/03 13:34:53;;;;;;;58.95;32.33;;;7.10;99.90;;;;;;7359899;19;20022;-56
2023/01/03 13:37:24;;;;;;;49.83;31.58;;;7.10;99.90;;;;;;7360563;19;20014;-54
2023/01/03 13:39:50;;;;;;;54.20;30.30;;;7.20;99.90;;;;;;7358029;19;20014;-54
2023/01/03 13:42:37;;;;;;;47.03;29.85;;;7.20;99.90;;;;;;7360959;19;20007;-52
2023/01/03 13:45:18;;;;;;;43.78;28.85;;;7.30;99.90;;;;;;7363121;19;20397;-51
2023/01/03 13:47:51;;;;;;;48.78;28.13;;;7.30;99.90;;;;;;7356263;19;20021;-54
2023/01/03 13:50:37;;;;;;;42.60;27.20;;;7.30;99.90;;;;;;7353381;19;20380;-54
2023/01/03 13:53:23;;;;;;;42.25;27.38;;;7.30;99.90;;;;;;7357452;19;20023;-52
2023/01/03 13:56:13;;;;;;;44.40;26.80;;;7.30;99.90;;;;;;7358095;19;20022;-53
2023/01/03 13:58:47;;;;;;;39.17;25.52;;;7.40;99.90;;;;;;7359623;19;20022;-53
2023/01/03 14:01:16;;;;;;;37.88;26.77;;;7.40;99.90;;;;;;7365122;19;20617;-53
2023/01/03 14:04:04;;;;;;;36.42;24.10;;;7.40;99.90;;;;;;7358128;19;20423;-52
2023/01/03 14:06:49;;;;;;;36.90;25.40;;;7.30;99.90;;;;;;7357831;19;20586;-54
2023/01/03 14:10:09;;;;;;;32.00;22.30;;;7.40;99.90;;;;;;7361559;19;20014;-53
2023/01/03 14:12:53;;;;;;;27.27;19.90;;;7.40;99.90;;;;;;7355144;19;20128;-51